Time;durP1;ratioP1;P1;durP2;ratioP2;P2;SDS_P1;SDS_P2;PMS_P1;PMS_P2;Temp;Humidity;BMP_temperature;BMP_pressure;BME280_temperature;BME280_humidity;BME280_pressure;Samples;Min_cycle;Max_cycle;Signal;HPM_P1;HPM_P2
2022/03/16 00:04:49;;;;;;;31.00;16.92;;;;;;;3.60;77.33;101359.75;8271087;34;20183;-73
2022/03/16 00:09:53;;;;;;;27.00;16.45;;;;;;;3.62;77.57;101353.47;8270616;34;20206;-72
2022/03/16 00:14:56;;;;;;;27.50;17.15;;;;;;;3.58;77.27;101362.47;8269247;34;20196;-73
2022/03/16 00:20:00;;;;;;;29.77;16.52;;;;;;;3.56;77.39;101374.06;8266170;34;20195;-73
2022/03/16 00:25:05;;;;;;;23.67;16.13;;;;;;;3.45;77.85;101374.44;8273589;34;20530;-73
2022/03/16 00:30:11;;;;;;;30.08;16.60;;;;;;;3.46;78.03;101368.22;8285454;34;20482;-72
2022/03/16 00:35:15;;;;;;;26.40;15.15;;;;;;;2.97;77.54;101375.25;8255278;34;20195;-72
2022/03/16 00:40:18;;;;;;;24.02;14.73;;;;;;;2.65;79.38;101382.47;8270495;34;20195;-73
2022/03/16 00:45:21;;;;;;;27.17;15.80;;;;;;;2.43;78.90;101387.53;8266464;34;20483;-72
2022/03/16 00:50:26;;;;;;;26.85;16.10;;;;;;;2.57;79.53;101395.97;8218815;34;20448;-74
2022/03/16 00:55:30;;;;;;;26.92;15.65;;;;;;;2.66;79.61;101401.88;8208976;34;20507;-74
2022/03/16 01:00:33;;;;;;;30.85;16.80;;;;;;;2.67;79.31;101407.16;8213742;34;20418;-72
2022/03/16 01:05:37;;;;;;;32.83;18.92;;;;;;;2.55;79.49;101402.22;8190618;34;20200;-73
2022/03/16 01:10:40;;;;;;;29.40;15.88;;;;;;;2.44;79.52;101399.00;8213937;34;21982;-74
2022/03/16 01:15:43;;;;;;;28.73;16.38;;;;;;;2.57;80.54;101405.72;8213676;34;20462;-74
2022/03/16 01:20:48;;;;;;;29.02;17.52;;;;;;;2.52;79.86;101410.25;8213320;34;20451;-74
2022/03/16 01:25:51;;;;;;;27.17;16.30;;;;;;;2.65;79.51;101401.03;8218635;34;20180;-74
2022/03/16 01:30:54;;;;;;;28.77;16.50;;;;;;;2.82;79.55;101389.88;8195248;34;20155;-74
2022/03/16 01:35:59;;;;;;;28.33;18.58;;;;;;;2.90;79.10;101393.13;8188229;34;20473;-74
2022/03/16 01:41:02;;;;;;;28.05;17.10;;;;;;;2.79;78.33;101393.47;8192866;34;20266;-74
2022/03/16 01:46:07;;;;;;;28.38;16.20;;;;;;;2.61;77.49;101397.63;8220288;34;20481;-74
2022/03/16 01:51:15;;;;;;;24.13;15.27;;;;;;;2.40;77.40;101403.56;8206825;34;20157;-74
2022/03/16 01:56:19;;;;;;;28.98;16.35;;;;;;;2.25;77.32;101404.91;8186073;34;20212;-74
2022/03/16 02:01:22;;;;;;;29.67;17.05;;;;;;;2.27;77.55;101397.75;8186111;34;20630;-74
2022/03/16 02:06:26;;;;;;;31.90;17.80;;;;;;;2.21;77.33;101400.59;8211290;34;20629;-74
2022/03/16 02:11:29;;;;;;;26.30;16.15;;;;;;;2.06;77.31;101396.63;8213836;34;21200;-74
2022/03/16 02:16:34;;;;;;;25.80;15.88;;;;;;;2.09;77.53;101403.63;8212252;34;21046;-74
2022/03/16 02:21:40;;;;;;;25.10;16.23;;;;;;;2.03;77.56;101402.03;8211548;34;20429;-74
2022/03/16 02:26:45;;;;;;;29.23;17.08;;;;;;;2.15;77.84;101414.03;8208918;34;20484;-74
2022/03/16 02:31:48;;;;;;;31.95;18.38;;;;;;;2.34;78.39;101417.88;8206981;34;20180;-73
2022/03/16 02:36:51;;;;;;;29.92;17.30;;;;;;;2.31;78.91;101412.66;8206489;34;20188;-74
2022/03/16 02:41:55;;;;;;;26.83;16.65;;;;;;;2.25;78.88;101404.91;8206117;34;20188;-74
2022/03/16 02:46:58;;;;;;;31.30;16.33;;;;;;;2.08;79.08;101407.16;8205073;34;20966;-73
2022/03/16 02:52:07;;;;;;;28.73;16.93;;;;;;;1.93;79.44;101405.84;8206096;34;21072;-74
2022/03/16 02:57:13;;;;;;;26.47;16.20;;;;;;;1.87;79.72;101404.22;8211156;34;20545;-74
2022/03/16 03:02:16;;;;;;;28.70;17.73;;;;;;;1.85;79.65;101399.88;8212285;34;20450;-73
2022/03/16 03:07:20;;;;;;;29.75;17.38;;;;;;;1.81;79.89;101400.88;8209617;34;20204;-74
2022/03/16 03:12:24;;;;;;;27.03;15.27;;;;;;;1.78;79.35;101383.28;8205469;34;20122;-74
2022/03/16 03:17:27;;;;;;;26.33;16.13;;;;;;;1.64;79.15;101394.25;8205024;34;20192;-74
2022/03/16 03:22:30;;;;;;;25.92;15.65;;;;;;;1.78;79.59;101398.31;8211136;34;21069;-74
2022/03/16 03:27:35;;;;;;;25.92;16.27;;;;;;;1.87;79.30;101401.59;8210710;34;20482;-73
2022/03/16 03:32:38;;;;;;;26.37;14.63;;;;;;;1.30;79.50;101412.84;8210098;34;20707;-73
2022/03/16 03:37:41;;;;;;;25.63;15.00;;;;;;;0.90;81.60;101419.16;8209532;34;20438;-74
2022/03/16 03:42:45;;;;;;;28.77;15.50;;;;;;;0.86;81.36;101414.84;8210154;34;20941;-74
2022/03/16 03:47:48;;;;;;;33.63;16.48;;;;;;;1.03;81.40;101428.53;8210400;34;21912;-74
2022/03/16 03:52:51;;;;;;;24.90;14.23;;;;;;;0.94;81.30;101420.81;8206478;34;20531;-74
2022/03/16 03:57:57;;;;;;;28.23;16.33;;;;;;;1.19;81.27;101420.22;8206106;34;21450;-74
2022/03/16 04:03:00;;;;;;;29.07;16.33;;;;;;;1.42;81.62;101417.81;8186008;34;20674;-74
2022/03/16 04:08:04;;;;;;;32.20;17.23;;;;;;;1.51;81.26;101416.72;8208813;34;20243;-74
2022/03/16 04:13:08;;;;;;;30.57;17.07;;;;;;;1.58;80.57;101420.06;8209274;34;20153;-74
2022/03/16 04:18:11;;;;;;;26.30;16.70;;;;;;;1.52;80.03;101426.41;8213114;34;20446;-72
2022/03/16 04:23:14;;;;;;;33.60;16.38;;;;;;;1.28;79.54;101430.56;8216948;34;20473;-73
2022/03/16 04:28:18;;;;;;;27.60;15.02;;;;;;;0.73;80.25;101443.34;8215339;34;20440;-72
2022/03/16 04:33:21;;;;;;;28.27;15.55;;;;;;;0.58;82.11;101449.03;8210213;34;20423;-72
2022/03/16 04:38:24;;;;;;;29.45;15.40;;;;;;;0.52;82.36;101460.59;8252439;34;20433;-73
2022/03/16 04:43:29;;;;;;;29.20;14.53;;;;;;;0.28;82.81;101471.72;8262781;34;20437;-74
2022/03/16 04:48:32;;;;;;;30.67;16.10;;;;;;;0.41;83.43;101474.94;8261722;34;20239;-73
2022/03/16 04:53:35;;;;;;;29.07;16.23;;;;;;;0.75;83.71;101461.84;8256676;34;20191;-74
2022/03/16 04:58:39;;;;;;;31.53;15.83;;;;;;;1.12;83.72;101467.13;8256175;34;20178;-74
2022/03/16 05:03:42;;;;;;;28.63;16.20;;;;;;;1.13;82.54;101465.38;8254187;34;20435;-74
2022/03/16 05:08:47;;;;;;;29.47;17.93;;;;;;;0.96;81.59;101466.66;8255260;34;20152;-74
2022/03/16 05:13:52;;;;;;;33.67;17.23;;;;;;;0.84;80.76;101470.44;8256387;34;20529;-74
2022/03/16 05:18:55;;;;;;;33.57;19.00;;;;;;;0.63;80.35;101476.19;8257388;34;20571;-74
2022/03/16 05:23:58;;;;;;;29.47;16.87;;;;;;;0.55;80.31;101480.78;8261876;34;20136;-74
2022/03/16 05:29:03;;;;;;;27.10;14.97;;;;;;;0.51;80.20;101481.78;8265395;34;20228;-74
2022/03/16 05:34:06;;;;;;;28.80;16.30;;;;;;;0.57;80.64;101487.78;8270919;34;20914;-74
2022/03/16 05:39:10;;;;;;;35.70;20.27;;;;;;;0.53;80.18;101490.56;8279618;34;20244;-72
2022/03/16 05:44:15;;;;;;;33.90;18.00;;;;;;;0.56;80.63;101482.56;8279715;34;20526;-72
2022/03/16 05:49:18;;;;;;;35.03;17.27;;;;;;;0.60;80.64;101470.97;8273932;34;20831;-72
2022/03/16 05:54:21;;;;;;;31.17;17.73;;;;;;;0.73;81.41;101461.00;8250203;34;20168;-72
2022/03/16 05:59:25;;;;;;;30.60;16.70;;;;;;;0.87;80.99;101473.91;8276164;34;20721;-74
2022/03/16 06:04:29;;;;;;;41.40;20.37;;;;;;;1.04;82.24;101472.63;8269996;34;20428;-73
2022/03/16 06:09:32;;;;;;;41.43;21.13;;;;;;;1.04;82.78;101469.97;8266862;34;20436;-73
2022/03/16 06:14:37;;;;;;;41.57;22.17;;;;;;;1.18;82.53;101482.88;8261407;34;20449;-74
2022/03/16 06:19:40;;;;;;;45.73;21.73;;;;;;;1.28;82.70;101488.78;8264114;34;20246;-75
2022/03/16 06:24:43;;;;;;;44.83;23.67;;;;;;;1.47;82.35;101495.38;8261687;34;20282;-74
2022/03/16 06:29:47;;;;;;;45.53;23.53;;;;;;;1.62;82.29;101503.81;8213503;34;21767;-73
2022/03/16 06:34:50;;;;;;;49.43;22.33;;;;;;;1.75;81.21;101514.97;8205260;34;21615;-74
2022/03/16 06:39:53;;;;;;;40.07;20.73;;;;;;;1.68;81.86;101516.94;8205086;34;20502;-74
2022/03/16 06:44:58;;;;;;;41.40;20.88;;;;;;;1.93;81.29;101514.50;8204012;34;20483;-73
2022/03/16 06:50:01;;;;;;;28.55;16.00;;;;;;;2.17;80.71;101516.47;8205393;34;20192;-74
2022/03/16 06:55:05;;;;;;;54.88;26.63;;;;;;;2.69;80.02;101523.84;8205459;34;20195;-74
2022/03/16 07:00:13;;;;;;;37.30;20.17;;;;;;;3.49;78.69;101515.09;8197015;34;20226;-74
2022/03/16 07:05:16;;;;;;;28.17;16.88;;;;;;;3.91;76.63;101522.50;8189814;34;20667;-74
2022/03/16 07:10:24;;;;;;;30.10;18.00;;;;;;;4.25;75.90;101525.75;8200751;34;20843;-74
2022/03/16 07:15:31;;;;;;;26.50;16.13;;;;;;;4.47;75.13;101529.38;8209725;34;20491;-74
2022/03/16 07:20:34;;;;;;;26.35;15.93;;;;;;;4.58;75.52;101531.59;8222869;34;20529;-74
2022/03/16 07:25:39;;;;;;;33.75;17.88;;;;;;;5.07;74.66;101529.75;8196767;34;20452;-73
2022/03/16 07:30:44;;;;;;;36.85;19.05;;;;;;;5.46;73.96;101526.41;8209565;34;20271;-73
2022/03/16 07:35:48;;;;;;;27.88;17.00;;;;;;;5.94;72.05;101530.56;8206267;34;20433;-73
2022/03/16 07:40:51;;;;;;;29.90;16.42;;;;;;;6.20;70.62;101533.88;8206174;34;20610;-74
2022/03/16 07:45:56;;;;;;;31.65;17.85;;;;;;;6.38;70.19;101533.06;8203391;34;20188;-74
2022/03/16 07:50:58;;;;;;;30.17;18.25;;;;;;;6.14;70.11;101535.03;8203473;34;20518;-74
2022/03/16 07:56:02;;;;;;;30.15;17.60;;;;;;;6.39;69.30;101538.34;8208799;34;21927;-74
2022/03/16 08:01:06;;;;;;;31.50;17.80;;;;;;;6.65;68.71;101546.09;8210051;34;20260;-73
2022/03/16 08:06:10;;;;;;;26.52;16.40;;;;;;;6.51;69.31;101544.06;8208342;34;20364;-74
2022/03/16 08:11:13;;;;;;;33.22;17.10;;;;;;;6.99;67.96;101540.06;8215895;34;20141;-73
2022/03/16 08:16:17;;;;;;;34.40;17.42;;;;;;;7.54;67.05;101545.38;8215690;34;20183;-73
2022/03/16 08:21:20;;;;;;;32.40;17.95;;;;;;;8.16;65.43;101543.13;8214816;34;20992;-74
2022/03/16 08:26:24;;;;;;;31.50;17.88;;;;;;;7.85;64.45;101549.22;8214765;34;20426;-74
2022/03/16 08:31:29;;;;;;;29.77;16.90;;;;;;;8.03;65.63;101532.19;8214783;34;20522;-73
2022/03/16 08:36:32;;;;;;;27.45;16.27;;;;;;;8.14;65.01;101534.31;8213675;34;20310;-74
2022/03/16 08:41:35;;;;;;;31.00;16.70;;;;;;;8.02;66.05;101529.59;8213357;34;20746;-73
2022/03/16 08:46:39;;;;;;;29.17;16.70;;;;;;;7.92;66.77;101531.88;8213627;34;20292;-74
2022/03/16 08:51:42;;;;;;;34.70;20.93;;;;;;;8.35;66.27;101535.84;8212911;34;20694;-74
2022/03/16 08:56:45;;;;;;;27.60;16.42;;;;;;;9.00;64.90;101525.19;8205499;34;20860;-74
2022/03/16 09:01:51;;;;;;;34.60;18.17;;;;;;;9.03;63.11;101538.41;8204080;34;21099;-74
2022/03/16 09:06:54;;;;;;;30.10;16.60;;;;;;;9.95;62.99;101526.84;8202884;34;20432;-73
2022/03/16 09:11:58;;;;;;;31.63;16.55;;;;;;;10.13;60.85;101520.34;8206853;34;20434;-74
2022/03/16 09:17:02;;;;;;;29.08;16.45;;;;;;;10.20;60.27;101520.81;8204206;34;20697;-74
2022/03/16 09:22:06;;;;;;;30.35;16.20;;;;;;;10.28;60.30;101520.34;8209345;34;20145;-74
2022/03/16 09:27:09;;;;;;;27.33;15.25;;;;;;;10.39;59.42;101515.19;8200593;34;20164;-73
2022/03/16 09:32:14;;;;;;;28.15;15.38;;;;;;;10.49;57.55;101515.50;8202136;34;20504;-73
2022/03/16 09:37:17;;;;;;;24.38;15.35;;;;;;;10.84;57.23;101506.03;8202792;34;20428;-73
2022/03/16 09:42:20;;;;;;;27.83;15.05;;;;;;;10.68;56.76;101501.75;8202075;34;20545;-73
2022/03/16 09:47:25;;;;;;;27.00;15.52;;;;;;;11.21;56.26;101510.88;8204142;34;20443;-73
2022/03/16 09:52:28;;;;;;;25.58;14.60;;;;;;;11.17;55.84;101493.22;8202226;34;20448;-73
2022/03/16 09:57:31;;;;;;;27.50;13.77;;;;;;;11.10;54.03;101503.47;8203018;34;20507;-73
2022/03/16 10:02:36;;;;;;;23.92;12.60;;;;;;;11.41;54.12;101477.25;8202483;34;21098;-74
2022/03/16 10:07:39;;;;;;;26.17;13.98;;;;;;;11.99;53.90;101475.97;8210297;34;20184;-73
2022/03/16 10:18:05;;;;;;;22.92;14.02;;;;;;;12.12;51.36;101482.22;8205392;34;20526;-72
2022/03/16 10:23:12;;;;;;;25.73;13.80;;;;;;;11.80;51.09;101483.59;8205262;34;20158;-71
2022/03/16 10:28:18;;;;;;;29.05;14.65;;;;;;;12.14;51.84;101480.25;8204683;34;20200;-72
2022/03/16 10:33:30;;;;;;;23.92;14.30;;;;;;;12.57;50.03;101474.56;8202820;34;20447;-73
2022/03/16 10:38:40;;;;;;;27.58;14.77;;;;;;;12.53;48.97;101459.59;8206762;34;20911;-73
2022/03/16 10:49:09;;;;;;;25.20;14.10;;;;;;;13.15;48.62;101453.22;8214435;34;20534;-72
2022/03/16 10:54:14;;;;;;;21.98;13.48;;;;;;;13.04;47.89;101455.84;8206578;34;20269;-73
2022/03/16 10:59:18;;;;;;;22.35;12.57;;;;;;;13.04;46.39;101447.75;8206001;34;21079;-72
2022/03/16 11:04:25;;;;;;;27.40;13.45;;;;;;;12.39;47.38;101465.09;8205517;34;20552;-73
2022/03/16 11:09:29;;;;;;;26.40;13.73;;;;;;;13.31;46.60;101460.16;8206398;34;20425;-72
2022/03/16 11:14:34;;;;;;;22.08;12.63;;;;;;;12.81;46.21;101441.41;8210152;34;20557;-73
2022/03/16 11:19:39;;;;;;;22.27;12.40;;;;;;;13.16;46.33;101437.88;8210279;34;20480;-71
2022/03/16 11:24:48;;;;;;;21.75;12.80;;;;;;;13.18;45.86;101431.41;8210357;34;20467;-72
2022/03/16 11:30:25;;;;;;;22.45;12.68;;;;;;;13.61;45.08;101440.78;8210615;34;20224;-72
2022/03/16 11:35:33;;;;;;;19.65;12.05;;;;;;;14.65;42.54;101423.56;8208765;34;20607;-73
2022/03/16 11:40:40;;;;;;;22.42;11.77;;;;;;;14.49;43.22;101411.28;8209773;34;20462;-72
2022/03/16 11:45:46;;;;;;;19.90;12.32;;;;;;;14.77;43.11;101422.53;8210409;34;20188;-72
2022/03/16 11:51:28;;;;;;;20.58;13.05;;;;;;;14.45;42.24;101419.75;8211590;34;20267;-73
2022/03/16 11:56:45;;;;;;;17.98;11.65;;;;;;;14.39;41.88;101396.78;8223292;34;20207;-72
2022/03/16 12:01:52;;;;;;;22.48;11.27;;;;;;;14.62;42.56;101408.44;8224012;34;20165;-73
2022/03/16 12:07:02;;;;;;;25.05;13.27;;;;;;;14.13;42.42;101401.59;8224275;34;20486;-73
2022/03/16 12:17:42;;;;;;;21.40;12.32;;;;;;;14.81;41.59;101395.13;8265795;34;20187;-73
2022/03/16 12:22:50;;;;;;;19.17;10.55;;;;;;;15.22;40.47;101396.19;8266211;34;20197;-73
2022/03/16 12:33:19;;;;;;;21.77;12.43;;;;;;;16.39;39.02;101377.06;8274828;34;20221;-73
2022/03/16 12:38:26;;;;;;;20.52;13.65;;;;;;;16.86;38.76;101353.72;8267661;34;20525;-73
2022/03/16 12:43:32;;;;;;;19.05;12.40;;;;;;;17.17;37.74;101356.34;8270617;34;20821;-72
2022/03/16 12:48:37;;;;;;;21.25;13.50;;;;;;;16.67;39.14;101343.72;8242402;34;20745;-73
2022/03/16 12:53:45;;;;;;;22.00;14.85;;;;;;;17.28;38.46;101348.03;8264394;34;20144;-74
2022/03/16 12:58:53;;;;;;;23.05;13.80;;;;;;;17.29;38.03;101349.75;8262177;34;20558;-73
2022/03/16 13:04:01;;;;;;;23.27;14.07;;;;;;;17.19;38.70;101344.31;8263593;34;20199;-74
2022/03/16 13:09:09;;;;;;;27.23;15.05;;;;;;;17.55;38.18;101346.41;8271764;34;21105;-75
2022/03/16 13:14:15;;;;;;;23.88;14.23;;;;;;;16.99;38.28;101342.59;8261911;34;20136;-74
2022/03/16 13:19:24;;;;;;;26.48;14.27;;;;;;;17.00;39.61;101338.88;8259284;34;20512;-73
2022/03/16 13:24:30;;;;;;;25.17;15.32;;;;;;;17.41;38.38;101353.16;8261163;34;20433;-74
2022/03/16 13:29:36;;;;;;;25.77;14.63;;;;;;;17.78;37.84;101336.91;8261201;34;20148;-74
2022/03/16 13:34:41;;;;;;;22.95;15.70;;;;;;;18.33;37.02;101334.25;8261719;34;21242;-73
2022/03/16 13:39:57;;;;;;;25.30;15.35;;;;;;;19.55;34.81;101336.38;8263235;34;20626;-74
2022/03/16 13:45:17;;;;;;;22.50;14.52;;;;;;;19.98;33.57;101326.44;8262706;34;21090;-73
2022/03/16 13:50:23;;;;;;;23.27;14.45;;;;;;;21.31;32.43;101321.09;8259792;34;20448;-74
2022/03/16 13:55:34;;;;;;;23.00;14.77;;;;;;;20.69;31.62;101314.25;8260071;34;20423;-72
2022/03/16 14:00:44;;;;;;;22.85;14.43;;;;;;;20.71;31.85;101304.00;8254464;34;20435;-72
2022/03/16 14:05:47;;;;;;;21.50;13.45;;;;;;;20.20;32.63;101300.44;8253158;34;20899;-73
2022/03/16 14:10:54;;;;;;;24.50;14.93;;;;;;;20.32;32.64;101284.66;8253899;34;20434;-74
2022/03/16 14:16:12;;;;;;;23.33;13.60;;;;;;;20.51;32.04;101287.06;8257637;34;20435;-74
2022/03/16 14:21:15;;;;;;;20.67;13.20;;;;;;;19.82;32.41;101290.91;8258754;34;20417;-73
2022/03/16 14:26:20;;;;;;;22.67;14.02;;;;;;;19.72;32.95;101271.97;8262510;34;20439;-73
2022/03/16 14:31:24;;;;;;;20.50;12.90;;;;;;;20.64;31.52;101262.03;8314008;34;20587;-74
2022/03/16 14:36:27;;;;;;;20.23;13.27;;;;;;;20.45;32.13;101262.34;8318117;34;20520;-73
2022/03/16 14:41:32;;;;;;;20.70;12.50;;;;;;;20.32;31.29;101265.53;8318453;34;20246;-74
2022/03/16 14:46:35;;;;;;;17.70;12.00;;;;;;;21.07;30.94;101257.28;8316562;34;20443;-74
2022/03/16 14:51:39;;;;;;;19.73;12.15;;;;;;;18.66;33.05;101274.72;8317659;34;20590;-73
2022/03/16 14:56:43;;;;;;;16.65;10.65;;;;;;;18.43;33.26;101263.47;8297013;34;20238;-74
2022/03/16 15:01:46;;;;;;;19.88;11.43;;;;;;;16.20;37.44;101258.56;8321778;34;21141;-74
2022/03/16 15:06:49;;;;;;;20.85;12.48;;;;;;;14.62;41.24;101257.03;8287801;34;1074647;-74
2022/03/16 15:11:54;;;;;;;18.38;10.75;;;;;;;13.97;42.57;101242.56;8318222;34;20462;-73
2022/03/16 15:16:57;;;;;;;20.10;11.90;;;;;;;13.53;43.94;101236.22;8317116;34;20511;-73
2022/03/16 15:22:01;;;;;;;19.17;11.93;;;;;;;13.61;43.80;101231.06;8318697;34;20186;-75
2022/03/16 15:27:06;;;;;;;18.05;12.35;;;;;;;13.44;44.57;101235.13;8320518;34;20435;-74
2022/03/16 15:32:10;;;;;;;22.17;11.52;;;;;;;13.31;44.50;101225.41;8325388;34;20155;-74
2022/03/16 15:37:15;;;;;;;19.15;10.80;;;;;;;12.98;44.67;101224.38;8332365;34;20717;-73
2022/03/16 15:47:40;;;;;;;21.20;10.90;;;;;;;12.98;45.56;101214.44;8333245;34;20221;-73
2022/03/16 15:52:44;;;;;;;19.73;11.48;;;;;;;13.00;46.59;101207.09;8335914;34;20531;-73
2022/03/16 15:57:48;;;;;;;17.75;10.75;;;;;;;12.99;45.86;101215.28;8337772;34;20297;-73
2022/03/16 16:02:51;;;;;;;21.45;9.98;;;;;;;12.88;45.59;101215.28;8338802;34;20464;-73
2022/03/16 16:07:56;;;;;;;17.98;8.95;;;;;;;12.56;45.65;101205.13;8335788;34;20261;-73
2022/03/16 16:13:00;;;;;;;14.93;8.32;;;;;;;12.56;45.88;101195.22;8333416;34;20232;-73
2022/03/16 16:18:03;;;;;;;17.42;8.82;;;;;;;12.66;45.51;101194.50;8336365;34;20155;-73
2022/03/16 16:23:07;;;;;;;17.08;9.05;;;;;;;12.46;45.66;101183.44;8337777;34;20652;-73
2022/03/16 16:28:12;;;;;;;16.00;8.73;;;;;;;12.30;46.01;101183.72;8328570;34;20441;-73
2022/03/16 16:33:18;;;;;;;17.67;8.07;;;;;;;12.28;46.32;101169.50;8337440;34;21708;-74
2022/03/16 16:38:21;;;;;;;13.70;8.35;;;;;;;11.97;46.63;101157.47;8323964;34;20624;-74
2022/03/16 16:43:32;;;;;;;14.40;8.48;;;;;;;11.87;46.04;101159.97;8321705;34;20178;-73
2022/03/16 16:48:35;;;;;;;13.57;7.55;;;;;;;11.62;46.41;101166.31;8319714;34;20926;-73
2022/03/16 16:53:39;;;;;;;12.73;7.25;;;;;;;11.66;45.73;101172.34;8321675;34;20627;-73
2022/03/16 16:58:47;;;;;;;12.50;8.05;;;;;;;11.43;46.08;101180.25;8317714;34;20578;-73
2022/03/16 17:03:51;;;;;;;19.80;8.57;;;;;;;11.44;46.46;101170.38;8321201;34;20230;-73
2022/03/16 17:08:54;;;;;;;16.85;8.60;;;;;;;11.18;47.59;101170.38;8318035;34;20182;-73
2022/03/16 17:13:58;;;;;;;22.33;10.40;;;;;;;10.88;49.73;101173.38;8321096;34;20198;-74
2022/03/16 17:19:01;;;;;;;17.50;10.45;;;;;;;10.84;51.05;101161.13;8319038;34;20460;-74
2022/03/16 17:24:06;;;;;;;18.63;10.88;;;;;;;10.69;52.18;101164.88;8301074;34;20617;-73
2022/03/16 17:29:11;;;;;;;17.15;11.05;;;;;;;10.54;52.82;101169.50;8264588;34;20597;-74
2022/03/16 17:34:14;;;;;;;19.52;11.52;;;;;;;10.47;53.08;101187.84;8264770;34;20154;-73
2022/03/16 17:39:17;;;;;;;23.63;13.88;;;;;;;10.42;53.39;101184.59;8266140;34;20140;-73
2022/03/16 17:49:42;;;;;;;25.50;13.98;;;;;;;10.23;54.05;101168.91;8273946;34;20501;-74
2022/03/16 17:54:45;;;;;;;25.88;14.13;;;;;;;10.10;54.90;101135.78;8267355;34;20215;-73
2022/03/16 17:59:49;;;;;;;27.95;14.70;;;;;;;10.04;55.24;101176.44;8264112;34;20202;-72
2022/03/16 18:04:55;;;;;;;28.33;14.70;;;;;;;10.06;55.38;101186.09;8265735;34;20659;-73
2022/03/16 18:15:32;;;;;;;24.48;14.73;;;;;;;9.82;56.40;101168.91;8153619;34;20195;-74
2022/03/16 18:20:35;;;;;;;25.60;14.60;;;;;;;9.72;56.21;101174.00;8290802;34;20467;-73
2022/03/16 18:25:39;;;;;;;25.77;16.63;;;;;;;9.75;56.58;101203.31;8305888;34;20879;-73
2022/03/16 18:30:44;;;;;;;28.38;15.43;;;;;;;9.62;56.65;101195.19;8325807;34;20457;-73
2022/03/16 18:35:47;;;;;;;26.23;15.25;;;;;;;9.69;56.47;101201.06;8319418;34;20143;-72
2022/03/16 18:40:53;;;;;;;29.23;16.05;;;;;;;9.65;55.74;101196.81;8320125;34;20482;-72
2022/03/16 18:45:57;;;;;;;30.13;14.90;;;;;;;9.70;55.82;101208.13;8292088;34;20157;-73
2022/03/16 18:51:05;;;;;;;26.17;14.45;;;;;;;9.54;55.77;101208.25;8305725;34;21926;-73
2022/03/16 18:56:08;;;;;;;23.30;13.95;;;;;;;9.34;56.13;101206.81;8316453;34;20150;-72
2022/03/16 19:01:12;;;;;;;21.73;13.40;;;;;;;9.33;55.62;101204.25;8317250;34;20635;-72
2022/03/16 19:06:20;;;;;;;25.13;15.50;;;;;;;9.28;56.06;101212.56;8320407;34;20214;-72
2022/03/16 19:16:48;;;;;;;25.90;15.13;;;;;;;9.08;56.08;101200.44;8326247;34;20438;-72
2022/03/16 19:21:52;;;;;;;30.45;17.20;;;;;;;9.33;55.97;101217.66;8333451;34;20148;-72
2022/03/16 19:26:55;;;;;;;25.35;15.02;;;;;;;9.20;56.28;101206.84;8296189;34;20191;-72
2022/03/16 19:32:00;;;;;;;27.52;15.88;;;;;;;9.10;56.59;101198.47;8276807;34;20426;-72
2022/03/16 19:37:03;;;;;;;30.42;15.25;;;;;;;9.00;57.37;101189.31;8253410;34;20196;-72
2022/03/16 19:42:13;;;;;;;24.95;15.35;;;;;;;9.05;57.50;101185.38;8256044;34;20419;-72
2022/03/16 19:47:18;;;;;;;26.83;15.00;;;;;;;8.95;58.12;101188.72;8245506;34;20266;-72
2022/03/16 19:52:21;;;;;;;27.30;16.08;;;;;;;9.08;57.81;101188.81;8230687;34;20418;-72
2022/03/16 19:57:24;;;;;;;32.22;16.80;;;;;;;8.72;59.39;101163.31;8249571;34;20439;-72
2022/03/16 20:02:29;;;;;;;28.77;15.85;;;;;;;8.96;58.98;101166.31;8253439;34;22159;-73
2022/03/16 20:07:33;;;;;;;33.70;18.45;;;;;;;8.47;60.38;101153.25;8239015;34;20517;-73
2022/03/16 20:12:37;;;;;;;34.20;17.17;;;;;;;8.72;60.09;101148.16;8242268;34;21064;-73
2022/03/16 20:17:41;;;;;;;34.58;17.02;;;;;;;8.84;59.83;101144.69;8240632;34;20402;-71
2022/03/16 20:22:48;;;;;;;31.35;16.67;;;;;;;8.68;60.61;101137.69;8198969;34;20265;-72
2022/03/16 20:27:51;;;;;;;31.40;17.25;;;;;;;8.79;60.38;101140.56;8239049;34;20184;-73
2022/03/16 20:32:55;;;;;;;33.47;17.13;;;;;;;8.66;60.92;101120.84;8241773;34;20132;-73
2022/03/16 20:37:58;;;;;;;33.03;17.55;;;;;;;8.48;61.45;101123.72;8242777;34;21764;-73
2022/03/16 20:43:01;;;;;;;31.50;17.48;;;;;;;8.43;61.40;101122.22;8238553;34;20456;-73
2022/03/16 20:48:06;;;;;;;36.13;18.63;;;;;;;8.31;62.22;101121.13;8222242;34;21986;-73
2022/03/16 20:53:10;;;;;;;32.20;18.02;;;;;;;8.41;62.03;101111.59;8217805;34;20483;-73
2022/03/16 21:03:32;;;;;;;39.75;19.77;;;;;;;8.35;62.55;101103.94;8234513;34;20215;-74
2022/03/16 21:08:35;;;;;;;35.97;18.98;;;;;;;8.18;63.71;101084.41;8240059;34;21461;-73
2022/03/16 21:13:41;;;;;;;32.22;17.85;;;;;;;8.44;62.92;101087.31;8240389;34;21377;-73
2022/03/16 21:18:46;;;;;;;35.55;19.10;;;;;;;8.19;63.81;101085.25;8232987;34;20523;-73
2022/03/16 21:23:49;;;;;;;32.03;18.08;;;;;;;8.30;63.38;101079.28;8236087;34;20555;-73
2022/03/16 21:28:53;;;;;;;36.85;19.08;;;;;;;8.11;63.92;101069.66;8246222;34;20428;-73
2022/03/16 21:33:57;;;;;;;35.78;19.20;;;;;;;8.18;63.45;101065.69;8266056;34;21909;-74
2022/03/16 21:39:01;;;;;;;36.90;18.90;;;;;;;8.29;63.16;101072.19;8263307;34;20901;-73
2022/03/16 21:49:40;;;;;;;35.42;18.88;;;;;;;8.11;63.92;101091.06;8717240;32;20643;-72
2022/03/16 21:54:44;;;;;;;38.17;20.98;;;;;;;8.16;63.48;101077.41;8672690;33;20187;-72
2022/03/16 21:59:48;;;;;;;34.53;17.92;;;;;;;8.36;62.89;101086.91;8679864;33;20223;-72
2022/03/16 22:04:53;;;;;;;37.40;19.13;;;;;;;8.33;62.68;101098.66;8680139;33;20684;-72
2022/03/16 22:09:56;;;;;;;33.90;18.10;;;;;;;8.31;63.05;101091.69;8679773;33;20574;-72
2022/03/16 22:14:59;;;;;;;36.42;18.70;;;;;;;8.23;63.06;101093.97;8679580;33;20175;-72
2022/03/16 22:20:06;;;;;;;33.85;18.85;;;;;;;8.49;61.96;101087.94;8676892;33;20161;-73
2022/03/16 22:25:10;;;;;;;33.63;18.50;;;;;;;8.29;62.70;101089.13;8679237;33;20191;-72
2022/03/16 22:30:13;;;;;;;29.50;17.17;;;;;;;8.37;62.41;101076.13;8679858;33;20137;-72
2022/03/16 22:35:18;;;;;;;36.28;17.23;;;;;;;8.33;62.45;101085.28;8680379;33;20277;-72
2022/03/16 22:40:21;;;;;;;32.58;15.52;;;;;;;8.32;62.53;101070.19;8679908;33;20192;-73
2022/03/16 22:45:24;;;;;;;33.08;18.25;;;;;;;8.29;62.52;101069.53;8681068;33;20188;-74
2022/03/16 22:50:29;;;;;;;38.13;18.33;;;;;;;8.50;61.72;101070.94;8681430;33;20183;-74
2022/03/16 22:55:32;;;;;;;35.88;18.27;;;;;;;8.31;62.10;101062.25;8678345;33;20192;-74
2022/03/16 23:00:36;;;;;;;29.33;16.50;;;;;;;8.39;61.86;101078.69;8661201;33;21882;-73
2022/03/16 23:05:41;;;;;;;33.47;16.85;;;;;;;8.22;62.32;101066.34;8660329;33;20193;-73
2022/03/16 23:10:44;;;;;;;31.67;15.32;;;;;;;8.18;62.18;101076.38;8660937;33;20492;-71
2022/03/16 23:15:47;;;;;;;30.92;16.90;;;;;;;8.26;61.84;101094.66;8659958;33;20160;-73
2022/03/16 23:20:54;;;;;;;31.70;18.25;;;;;;;8.23;62.01;101093.97;8660225;33;20183;-73
2022/03/16 23:25:57;;;;;;;25.30;14.45;;;;;;;8.33;61.57;101092.47;8658004;33;20246;-73
2022/03/16 23:31:01;;;;;;;31.10;16.40;;;;;;;8.21;61.84;101093.22;8660987;33;20168;-73
2022/03/16 23:36:06;;;;;;;29.30;15.55;;;;;;;8.30;61.66;101084.63;8659586;33;20181;-73
2022/03/16 23:41:10;;;;;;;25.95;14.68;;;;;;;8.37;61.48;101091.34;8659347;33;20184;-73
2022/03/16 23:46:13;;;;;;;26.83;15.55;;;;;;;8.47;61.44;101089.84;8659058;33;20662;-73
2022/03/16 23:51:18;;;;;;;28.45;15.10;;;;;;;8.47;61.42;101091.66;8660136;33;20192;-73
2022/03/16 23:56:21;;;;;;;28.90;15.35;;;;;;;8.32;61.60;101086.25;8664018;33;20618;-73
